createdAt,value
2023-05-06T00:02:21.843Z,100241.00
2023-05-06T00:07:26.021Z,100231.59
2023-05-06T00:12:28.762Z,100227.84
2023-05-06T00:17:31.548Z,100228.34
2023-05-06T00:22:35.692Z,100228.00
2023-05-06T00:27:38.798Z,100225.16
2023-05-06T00:32:41.654Z,100218.63
2023-05-06T00:37:46.439Z,100227.78
2023-05-06T00:42:49.181Z,100229.59
2023-05-06T00:47:52.330Z,100238.91
2023-05-06T00:52:56.592Z,100230.50
2023-05-06T00:57:59.511Z,100224.75
2023-05-06T01:03:02.413Z,100229.53
2023-05-06T01:08:11.142Z,100225.41
2023-05-06T01:13:18.380Z,100224.53
2023-05-06T01:18:22.572Z,100233.59
2023-05-06T01:23:26.684Z,100221.00
2023-05-06T01:28:29.470Z,100215.16
2023-05-06T01:33:35.961Z,100216.25
2023-05-06T01:38:44.104Z,100228.97
2023-05-06T01:43:48.678Z,100234.56
2023-05-06T01:48:53.734Z,100237.53
2023-05-06T01:53:57.835Z,100235.09
2023-05-06T01:59:00.925Z,100231.69
2023-05-06T02:04:04.111Z,100233.63
2023-05-06T02:09:08.362Z,100232.91
2023-05-06T02:14:16.464Z,100225.97
2023-05-06T02:19:19.318Z,100216.41
2023-05-06T02:24:23.453Z,100224.44
2023-05-06T02:29:26.352Z,100222.88
2023-05-06T02:34:29.126Z,100226.81
2023-05-06T02:39:33.264Z,100231.69
2023-05-06T02:44:36.603Z,100229.50
2023-05-06T02:49:39.377Z,100225.09
2023-05-06T02:54:43.548Z,100230.97
2023-05-06T02:59:46.481Z,100224.25
2023-05-06T03:04:49.297Z,100226.22
2023-05-06T03:09:53.496Z,100216.59
2023-05-06T03:14:56.979Z,100218.91
2023-05-06T03:19:59.815Z,100228.06
2023-05-06T03:25:05.080Z,100227.34
2023-05-06T03:30:11.255Z,100217.06
2023-05-06T03:35:14.697Z,100219.03
2023-05-06T03:40:21.640Z,100213.88
2023-05-06T03:45:25.099Z,100217.81
2023-05-06T03:50:28.145Z,100222.44
2023-05-06T03:55:32.316Z,100226.19
2023-05-06T04:00:36.760Z,100221.22
2023-05-06T04:05:39.647Z,100229.38
2023-05-06T04:10:45.152Z,100236.78
2023-05-06T04:15:54.577Z,100242.41
2023-05-06T04:21:02.133Z,100257.75
2023-05-06T04:26:08.801Z,100255.31
2023-05-06T04:31:15.480Z,100267.97
2023-05-06T04:36:24.797Z,100274.28
2023-05-06T04:41:51.817Z,100268.94
2023-05-06T04:47:02.227Z,100285.28
2023-05-06T04:52:05.670Z,100286.13
2023-05-06T04:57:11.299Z,100272.69
2023-05-06T05:02:15.690Z,100298.69
2023-05-06T05:07:19.540Z,100304.78
2023-05-06T05:12:23.772Z,100312.50
2023-05-06T05:17:28.593Z,100303.81
2023-05-06T05:22:32.817Z,100322.56
2023-05-06T05:27:37.726Z,100322.69
2023-05-06T05:32:40.638Z,100316.34
2023-05-06T05:37:43.593Z,100323.81
2023-05-06T05:42:48.312Z,100314.97
2023-05-06T05:48:00.768Z,100313.28
2023-05-06T05:53:03.631Z,100317.81
2023-05-06T05:58:08.304Z,100324.56
2023-05-06T06:03:11.595Z,100328.81
2023-05-06T06:08:14.760Z,100329.78
2023-05-06T06:13:19.257Z,100344.44
2023-05-06T06:18:22.176Z,100356.63
2023-05-06T06:23:25.402Z,100354.19
2023-05-06T06:28:29.733Z,100365.00
2023-05-06T06:33:32.589Z,100362.38
2023-05-06T06:38:35.737Z,100357.03
2023-05-06T06:43:40.162Z,100369.34
2023-05-06T06:48:52.379Z,100366.91
2023-05-06T06:53:55.211Z,100360.81
2023-05-06T06:58:59.443Z,100373.25
2023-05-06T07:04:02.708Z,100385.47
2023-05-06T07:09:06.409Z,100392.66
2023-05-06T07:14:10.527Z,100397.41
2023-05-06T07:19:13.314Z,100407.16
2023-05-06T07:24:16.156Z,100409.59
2023-05-06T07:29:20.551Z,100427.53
2023-05-06T07:34:23.403Z,100422.41
2023-05-06T07:39:26.302Z,100449.00
2023-05-06T07:44:30.425Z,100457.53
2023-05-06T07:49:34.945Z,100459.03
2023-05-06T07:54:37.804Z,100462.78
2023-05-06T07:59:42.191Z,100478.50
2023-05-06T08:04:45.407Z,100481.25
2023-05-06T08:09:48.341Z,100482.22
2023-05-06T08:14:52.594Z,100449.28
2023-05-06T08:19:55.455Z,100488.72
2023-05-06T08:24:58.725Z,100479.16
2023-05-06T08:30:03.087Z,100479.47
2023-05-06T08:35:06.757Z,100479.78
2023-05-06T08:40:11.158Z,100481.31
2023-05-06T08:45:15.821Z,100486.88
2023-05-06T08:50:18.571Z,100493.41
2023-05-06T08:55:21.739Z,100499.69
2023-05-06T09:00:26.218Z,100497.00
2023-05-06T09:05:29.651Z,100495.25
2023-05-06T09:10:33.319Z,100495.31
2023-05-06T09:15:43.846Z,100489.50
2023-05-06T09:20:47.372Z,100492.53
2023-05-06T09:25:51.146Z,100482.69
2023-05-06T09:30:55.601Z,100492.88
2023-05-06T09:35:58.557Z,100484.44
2023-05-06T09:41:01.565Z,100486.03
2023-05-06T09:46:06.092Z,100483.47
2023-05-06T09:51:09.054Z,100497.53
2023-05-06T09:56:12.085Z,100496.78
2023-05-06T10:01:25.090Z,100498.72
2023-05-06T10:06:32.004Z,100502.13
2023-05-06T10:11:34.792Z,100507.59
2023-05-06T10:16:40.524Z,100499.69
2023-05-06T10:21:44.683Z,100499.94
2023-05-06T10:26:47.951Z,100486.91
2023-05-06T10:31:54.384Z,100491.81
2023-05-06T10:36:57.780Z,100492.41
2023-05-06T10:42:01.859Z,100489.91
2023-05-06T10:47:06.129Z,100484.91
2023-05-06T10:52:13.224Z,100482.50
2023-05-06T10:57:16.126Z,100483.34
2023-05-06T11:02:21.340Z,100472.84
2023-05-06T11:07:24.662Z,100479.56
2023-05-06T11:12:49.961Z,100480.16
2023-05-06T11:17:55.357Z,100478.22
2023-05-06T11:22:58.168Z,100493.97
2023-05-06T11:28:01.447Z,100490.09
2023-05-06T11:33:06.100Z,100487.16
2023-05-06T11:38:09.009Z,100498.63
2023-05-06T11:43:12.837Z,100491.66
2023-05-06T11:48:17.626Z,100496.66
2023-05-06T11:53:21.148Z,100510.75
2023-05-06T11:58:25.645Z,100516.22
2023-05-06T12:03:31.329Z,100513.03
2023-05-06T12:08:34.937Z,100522.47
2023-05-06T12:13:37.884Z,100515.59
2023-05-06T12:18:42.047Z,100526.22
2023-05-06T12:23:52.269Z,100531.47
2023-05-06T12:29:08.662Z,100530.88
2023-05-06T12:34:12.838Z,100543.56
2023-05-06T12:39:17.603Z,100527.78
2023-05-06T12:44:36.905Z,100533.66
2023-05-06T12:49:48.618Z,100525.59
2023-05-06T12:54:53.079Z,100528.28
2023-05-06T12:59:56.329Z,100527.53
2023-05-06T13:05:01.863Z,100535.38
2023-05-06T13:10:06.203Z,100529.38
2023-05-06T13:15:10.560Z,100524.84
2023-05-06T13:20:14.967Z,100521.94
2023-05-06T13:25:17.796Z,100526.81
2023-05-06T13:30:20.776Z,100538.78
2023-05-06T13:35:24.966Z,100529.75
2023-05-06T13:40:27.762Z,100532.56
2023-05-06T13:45:30.656Z,100522.03
2023-05-06T13:50:36.030Z,100524.72
2023-05-06T13:55:39.314Z,100524.38
2023-05-06T14:00:42.184Z,100524.97
2023-05-06T14:05:46.340Z,100537.34
2023-05-06T14:10:49.732Z,100522.53
2023-05-06T14:15:52.783Z,100527.06
2023-05-06T14:20:57.280Z,100523.06
2023-05-06T14:26:00.129Z,100524.84
2023-05-06T14:31:03.113Z,100519.00
2023-05-06T14:36:08.217Z,100526.34
2023-05-06T14:41:11.447Z,100527.91
2023-05-06T14:46:15.929Z,100522.16
2023-05-06T14:51:20.488Z,100524.97
2023-05-06T14:56:23.358Z,100528.91
2023-05-06T15:01:26.338Z,100536.97
2023-05-06T15:06:30.532Z,100530.66
2023-05-06T15:11:33.488Z,100531.13
2023-05-06T15:16:36.597Z,100522.84
2023-05-06T15:21:40.782Z,100527.22
2023-05-06T15:26:43.776Z,100527.47
2023-05-06T15:31:46.771Z,100524.41
2023-05-06T15:36:52.965Z,100528.09
2023-05-06T15:41:55.893Z,100539.13
2023-05-06T15:46:58.665Z,100533.47
2023-05-06T15:52:02.881Z,100546.41
2023-05-06T15:57:07.145Z,100553.03
2023-05-06T16:07:17.531Z,100554.00
2023-05-06T16:12:20.391Z,100543.91
2023-05-06T16:17:23.243Z,100549.53
2023-05-06T16:22:27.434Z,100557.44
2023-05-06T16:27:30.388Z,100545.75
2023-05-06T16:32:33.461Z,100546.63
2023-05-06T16:37:37.893Z,100559.72
2023-05-06T16:42:40.785Z,100556.31
2023-05-06T16:47:44.348Z,100562.41
2023-05-06T16:52:48.641Z,100567.53
2023-05-06T16:57:51.569Z,100575.03
2023-05-06T17:02:54.422Z,100575.34
2023-05-06T17:07:59.271Z,100585.03
2023-05-06T17:13:02.417Z,100590.06
2023-05-06T17:18:05.454Z,100581.91
2023-05-06T17:23:09.652Z,100579.59
2023-05-06T17:28:12.563Z,100574.47
2023-05-06T17:33:16.054Z,100576.66
2023-05-06T17:38:20.446Z,100592.63
2023-05-06T17:43:23.283Z,100595.59
2023-05-06T17:48:26.043Z,100608.91
2023-05-06T17:53:32.333Z,100602.75
2023-05-06T17:58:35.179Z,100602.00
2023-05-06T18:03:38.193Z,100615.63
2023-05-06T18:08:44.361Z,100620.03
2023-05-06T18:13:47.149Z,100628.84
2023-05-06T18:18:49.951Z,100624.66
2023-05-06T18:24:01.910Z,100620.78
2023-05-06T18:29:08.689Z,100615.63
2023-05-06T18:34:11.521Z,100614.31
2023-05-06T18:39:15.674Z,100620.97
2023-05-06T18:44:18.579Z,100633.69
2023-05-06T18:49:23.156Z,100635.88
2023-05-06T18:54:27.361Z,100643.94
2023-05-06T18:59:30.148Z,100641.38
2023-05-06T19:04:33.491Z,100648.59
2023-05-06T19:09:38.419Z,100652.97
2023-05-06T19:14:43.813Z,100665.69
2023-05-06T19:19:48.596Z,100662.88
2023-05-06T19:24:52.772Z,100670.94
2023-05-06T19:29:55.698Z,100672.66
2023-05-06T19:34:59.042Z,100676.22
2023-05-06T19:40:04.097Z,100679.75
2023-05-06T19:45:11.002Z,100686.97
2023-05-06T19:50:14.056Z,100692.25
2023-05-06T19:55:18.532Z,100695.78
2023-05-06T20:00:32.959Z,100692.97
2023-05-06T20:05:35.869Z,100690.16
2023-05-06T20:10:40.166Z,100691.16
2023-05-06T20:15:43.286Z,100696.28
2023-05-06T20:20:47.160Z,100696.28
2023-05-06T20:25:51.355Z,100700.69
2023-05-06T20:30:55.469Z,100704.22
2023-05-06T20:35:58.236Z,100711.34
2023-05-06T20:41:02.863Z,100713.09
2023-05-06T20:46:06.622Z,100722.88
2023-05-06T20:51:09.530Z,100725.56
2023-05-06T20:56:20.206Z,100726.28
2023-05-06T21:01:24.201Z,100721.88
2023-05-06T21:06:27.004Z,100731.28
2023-05-06T21:11:31.080Z,100732.41
2023-05-06T21:16:33.936Z,100735.94
2023-05-06T21:21:36.780Z,100742.03
2023-05-06T21:26:41.098Z,100735.81
2023-05-06T21:31:43.979Z,100735.59
2023-05-06T21:36:46.809Z,100736.31
2023-05-06T21:41:50.907Z,100733.63
2023-05-06T21:46:53.851Z,100733.75
2023-05-06T21:51:56.644Z,100742.31
2023-05-06T21:57:00.837Z,100728.88
2023-05-06T22:02:03.859Z,100737.66
2023-05-06T22:07:06.764Z,100732.28
2023-05-06T22:12:12.548Z,100741.22
2023-05-06T22:17:15.648Z,100744.03
2023-05-06T22:22:18.488Z,100745.50
2023-05-06T22:27:22.631Z,100755.28
2023-05-06T22:32:25.496Z,100748.28
2023-05-06T22:37:28.310Z,100759.28
2023-05-06T22:42:32.526Z,100752.31
2023-05-06T22:47:35.324Z,100751.59
2023-05-06T22:52:38.921Z,100754.59
2023-05-06T22:57:43.088Z,100761.06
2023-05-06T23:02:46.122Z,100755.81
2023-05-06T23:07:48.946Z,100764.94
2023-05-06T23:12:53.292Z,100751.63
2023-05-06T23:17:56.089Z,100752.59
2023-05-06T23:22:59.218Z,100749.19
2023-05-06T23:28:03.461Z,100758.22
2023-05-06T23:33:06.914Z,100754.88
2023-05-06T23:38:09.728Z,100758.97
2023-05-06T23:43:13.847Z,100756.38
2023-05-06T23:48:16.617Z,100760.06
2023-05-06T23:53:19.400Z,100753.81
2023-05-06T23:58:23.560Z,100752.84
